createdAt,value
2023-09-14T00:00:54.756Z,100.00
2023-09-14T00:03:21.835Z,100.00
2023-09-14T00:05:50.548Z,100.00
2023-09-14T00:08:17.819Z,100.00
2023-09-14T00:10:45.145Z,100.00
2023-09-14T00:13:12.097Z,100.00
2023-09-14T00:15:41.722Z,100.00
2023-09-14T00:18:08.853Z,100.00
2023-09-14T00:20:35.746Z,100.00
2023-09-14T00:23:04.562Z,100.00
2023-09-14T00:25:31.576Z,100.00
2023-09-14T00:28:01.383Z,100.00
2023-09-14T00:30:28.288Z,100.00
2023-09-14T00:32:55.896Z,100.00
2023-09-14T00:35:22.979Z,100.00
2023-09-14T00:37:50.001Z,100.00
2023-09-14T00:40:18.913Z,100.00
2023-09-14T00:42:48.938Z,100.00
2023-09-14T00:45:18.193Z,100.00
2023-09-14T00:48:00.384Z,100.00
2023-09-14T00:50:28.289Z,100.00
2023-09-14T00:53:08.087Z,100.00
2023-09-14T00:55:36.349Z,100.00
2023-09-14T00:58:04.341Z,100.00
2023-09-14T01:00:32.552Z,100.00
2023-09-14T01:03:00.266Z,100.00
2023-09-14T01:05:32.783Z,100.00
2023-09-14T01:08:00.790Z,100.00
2023-09-14T01:10:27.863Z,100.00
2023-09-14T01:12:57.548Z,100.00
2023-09-14T01:15:33.112Z,100.00
2023-09-14T01:18:15.057Z,100.00
2023-09-14T01:21:09.799Z,100.00
2023-09-14T01:23:55.207Z,100.00
2023-09-14T01:26:23.155Z,100.00
2023-09-14T01:28:50.337Z,100.00
2023-09-14T01:31:17.362Z,100.00
2023-09-14T01:33:44.666Z,100.00
2023-09-14T01:36:42.899Z,100.00
2023-09-14T01:39:12.002Z,100.00
2023-09-14T01:41:40.439Z,100.00
2023-09-14T01:44:07.591Z,100.00
2023-09-14T01:46:34.928Z,100.00
2023-09-14T01:49:01.784Z,100.00
2023-09-14T01:51:31.200Z,100.00
2023-09-14T01:53:58.296Z,100.00
2023-09-14T01:56:25.051Z,100.00
2023-09-14T01:58:52.032Z,100.00
2023-09-14T02:01:18.949Z,100.00
2023-09-14T02:03:46.621Z,100.00
2023-09-14T02:06:16.386Z,100.00
2023-09-14T02:08:43.423Z,100.00
2023-09-14T02:11:10.359Z,100.00
2023-09-14T02:13:38.910Z,100.00
2023-09-14T02:16:05.881Z,100.00
2023-09-14T02:18:32.777Z,100.00
2023-09-14T02:20:59.555Z,100.00
2023-09-14T02:23:26.588Z,100.00
2023-09-14T02:25:53.525Z,100.00
2023-09-14T02:28:21.603Z,100.00
2023-09-14T02:30:49.368Z,100.00
2023-09-14T02:33:16.284Z,100.00
2023-09-14T02:35:46.189Z,100.00
2023-09-14T02:38:13.040Z,100.00
2023-09-14T02:40:39.985Z,100.00
2023-09-14T02:43:06.855Z,100.00
2023-09-14T02:45:33.733Z,100.00
2023-09-14T02:48:00.612Z,100.00
2023-09-14T02:50:27.390Z,100.00
2023-09-14T02:52:54.188Z,100.00
2023-09-14T02:55:20.980Z,100.00
2023-09-14T02:57:48.236Z,100.00
2023-09-14T03:00:18.510Z,100.00
2023-09-14T03:02:46.454Z,100.00
2023-09-14T03:05:14.383Z,100.00
2023-09-14T03:07:41.437Z,100.00
2023-09-14T03:10:09.226Z,100.00
2023-09-14T03:12:36.079Z,100.00
2023-09-14T03:15:03.295Z,100.00
2023-09-14T03:17:30.165Z,100.00
2023-09-14T03:19:57.411Z,100.00
2023-09-14T03:22:25.276Z,100.00
2023-09-14T03:24:52.187Z,100.00
2023-09-14T03:27:19.295Z,100.00
2023-09-14T03:29:46.472Z,100.00
2023-09-14T03:32:13.410Z,100.00
2023-09-14T03:34:40.314Z,100.00
2023-09-14T03:37:07.297Z,100.00
2023-09-14T03:39:34.512Z,100.00
2023-09-14T03:42:01.323Z,100.00
2023-09-14T03:44:30.292Z,100.00
2023-09-14T03:46:57.228Z,100.00
2023-09-14T03:49:24.051Z,100.00
2023-09-14T03:51:50.835Z,100.00
2023-09-14T03:54:17.713Z,100.00
2023-09-14T03:56:44.622Z,100.00
2023-09-14T03:59:11.816Z,100.00
2023-09-14T04:01:38.863Z,100.00
2023-09-14T04:04:08.167Z,100.00
2023-09-14T04:06:35.298Z,100.00
2023-09-14T04:09:02.741Z,100.00
2023-09-14T04:11:30.153Z,100.00
2023-09-14T04:13:57.462Z,100.00
2023-09-14T04:16:24.488Z,100.00
2023-09-14T04:18:51.732Z,100.00
2023-09-14T04:21:18.596Z,100.00
2023-09-14T04:23:46.613Z,100.00
2023-09-14T04:26:15.529Z,100.00
2023-09-14T04:28:42.307Z,100.00
2023-09-14T04:31:11.489Z,100.00
2023-09-14T04:33:38.894Z,100.00
2023-09-14T04:36:06.616Z,100.00
2023-09-14T04:38:34.792Z,100.00
2023-09-14T04:41:05.380Z,100.00
2023-09-14T04:43:34.165Z,100.00
2023-09-14T04:46:02.480Z,100.00
2023-09-14T04:48:29.891Z,100.00
2023-09-14T04:51:00.699Z,100.00
2023-09-14T04:53:28.208Z,100.00
2023-09-14T04:55:55.310Z,100.00
2023-09-14T04:58:24.895Z,100.00
2023-09-14T05:00:54.048Z,100.00
2023-09-14T05:03:21.913Z,100.00
2023-09-14T05:05:55.241Z,100.00
2023-09-14T05:08:23.207Z,100.00
2023-09-14T05:10:53.117Z,100.00
2023-09-14T05:13:24.393Z,100.00
2023-09-14T05:15:51.821Z,100.00
2023-09-14T05:18:24.570Z,100.00
2023-09-14T05:20:52.354Z,100.00
2023-09-14T05:23:19.341Z,100.00
2023-09-14T05:25:47.856Z,100.00
2023-09-14T05:28:16.243Z,100.00
2023-09-14T05:30:44.475Z,100.00
2023-09-14T05:33:11.918Z,100.00
2023-09-14T05:35:39.093Z,100.00
2023-09-14T05:38:06.332Z,100.00
2023-09-14T05:40:33.966Z,100.00
2023-09-14T05:43:01.445Z,100.00
2023-09-14T05:45:28.949Z,100.00
2023-09-14T05:47:56.930Z,100.00
2023-09-14T05:50:24.067Z,100.00
2023-09-14T05:52:51.673Z,100.00
2023-09-14T05:55:19.555Z,100.00
2023-09-14T05:57:46.973Z,100.00
2023-09-14T06:00:14.702Z,100.00
2023-09-14T06:02:47.933Z,100.00
2023-09-14T06:05:24.214Z,100.00
2023-09-14T06:07:53.268Z,100.00
2023-09-14T06:10:20.322Z,100.00
2023-09-14T06:12:47.221Z,100.00
2023-09-14T06:15:14.096Z,100.00
2023-09-14T06:17:40.989Z,100.00
2023-09-14T06:20:08.548Z,100.00
2023-09-14T06:22:36.344Z,100.00
2023-09-14T06:25:03.166Z,100.00
2023-09-14T06:27:30.246Z,100.00
2023-09-14T06:29:57.034Z,100.00
2023-09-14T06:32:23.825Z,100.00
2023-09-14T06:34:50.670Z,100.00
2023-09-14T06:37:17.860Z,100.00
2023-09-14T06:39:44.775Z,100.00
2023-09-14T06:42:11.611Z,100.00
2023-09-14T06:44:38.371Z,100.00
2023-09-14T06:47:05.327Z,100.00
2023-09-14T06:49:32.235Z,100.00
2023-09-14T06:51:59.062Z,100.00
2023-09-14T06:54:25.945Z,100.00
2023-09-14T06:56:52.694Z,100.00
2023-09-14T06:59:19.529Z,100.00
2023-09-14T07:01:46.493Z,100.00
2023-09-14T07:04:13.548Z,100.00
2023-09-14T07:06:41.043Z,100.00
2023-09-14T07:09:08.618Z,100.00
2023-09-14T07:11:35.676Z,100.00
2023-09-14T07:14:03.882Z,100.00
2023-09-14T07:16:30.833Z,100.00
2023-09-14T07:18:57.776Z,100.00
2023-09-14T07:21:24.620Z,100.00
2023-09-14T07:23:51.420Z,100.00
2023-09-14T07:26:18.885Z,100.00
2023-09-14T07:28:45.789Z,100.00
2023-09-14T07:31:12.776Z,100.00
2023-09-14T07:33:40.660Z,100.00
2023-09-14T07:36:07.495Z,98.10
2023-09-14T07:38:34.294Z,100.00
2023-09-14T07:41:01.036Z,99.87
2023-09-14T07:43:28.875Z,100.00
2023-09-14T07:45:58.647Z,100.00
2023-09-14T07:48:25.752Z,100.00
2023-09-14T07:50:54.075Z,100.00
2023-09-14T07:53:21.815Z,98.87
2023-09-14T07:55:53.859Z,98.02
2023-09-14T07:58:24.928Z,100.00
2023-09-14T08:00:51.817Z,100.00
2023-09-14T08:03:18.953Z,100.00
2023-09-14T08:05:46.189Z,98.46
2023-09-14T08:08:13.065Z,95.32
2023-09-14T08:10:39.959Z,95.58
2023-09-14T08:13:06.774Z,95.40
2023-09-14T08:15:35.785Z,96.23
2023-09-14T08:18:02.577Z,100.00
2023-09-14T08:20:29.479Z,100.00
2023-09-14T08:22:56.402Z,100.00
2023-09-14T08:25:23.530Z,100.00
2023-09-14T08:27:50.618Z,100.00
2023-09-14T08:30:17.693Z,100.00
2023-09-14T08:32:44.533Z,100.00
2023-09-14T08:35:26.210Z,100.00
2023-09-14T08:37:54.200Z,100.00
2023-09-14T08:40:23.281Z,100.00
2023-09-14T08:42:54.780Z,100.00
2023-09-14T08:45:29.359Z,100.00
2023-09-14T08:47:57.375Z,99.99
2023-09-14T08:50:26.235Z,95.87
2023-09-14T08:52:53.805Z,95.69
2023-09-14T08:55:22.861Z,95.55
2023-09-14T08:57:50.983Z,88.69
2023-09-14T09:00:20.976Z,87.68
2023-09-14T09:02:53.653Z,90.73
2023-09-14T09:05:22.160Z,86.76
2023-09-14T09:07:49.824Z,88.17
2023-09-14T09:10:26.891Z,84.17
2023-09-14T09:12:59.397Z,83.87
2023-09-14T09:15:29.120Z,81.00
2023-09-14T09:18:03.706Z,85.72
2023-09-14T09:20:30.916Z,79.03
2023-09-14T09:23:01.839Z,83.94
2023-09-14T09:25:46.514Z,80.51
2023-09-14T09:28:13.729Z,78.46
2023-09-14T09:30:40.670Z,78.36
2023-09-14T09:33:09.101Z,79.66
2023-09-14T09:35:36.042Z,77.86
2023-09-14T09:38:17.105Z,81.98
2023-09-14T09:40:47.332Z,79.24
2023-09-14T09:43:18.106Z,78.87
2023-09-14T09:45:47.461Z,72.28
2023-09-14T09:48:14.616Z,75.39
2023-09-14T09:50:41.728Z,77.28
2023-09-14T09:53:15.738Z,78.26
2023-09-14T09:55:45.404Z,75.90
2023-09-14T09:58:12.728Z,74.51
2023-09-14T10:00:41.229Z,74.59
2023-09-14T10:03:08.435Z,77.66
2023-09-14T10:05:41.554Z,77.03
2023-09-14T10:08:17.163Z,80.51
2023-09-14T10:10:52.368Z,77.54
2023-09-14T10:13:24.278Z,78.11
2023-09-14T10:15:57.829Z,73.08
2023-09-14T10:18:29.431Z,70.16
2023-09-14T10:20:57.438Z,73.03
2023-09-14T10:23:24.294Z,70.05
2023-09-14T10:25:52.329Z,68.39
2023-09-14T10:28:22.785Z,65.29
2023-09-14T10:30:52.182Z,67.17
2023-09-14T10:33:20.926Z,65.70
2023-09-14T10:35:50.393Z,67.79
2023-09-14T10:38:18.432Z,66.84
2023-09-14T10:40:46.560Z,71.27
2023-09-14T10:43:13.343Z,65.25
2023-09-14T10:45:44.498Z,65.00
2023-09-14T10:48:19.916Z,66.96
2023-09-14T10:50:47.372Z,66.15
2023-09-14T10:53:16.267Z,66.04
2023-09-14T10:55:43.550Z,66.31
2023-09-14T10:58:14.050Z,65.49
2023-09-14T11:03:22.193Z,66.64
2023-09-14T11:05:53.776Z,62.46
2023-09-14T11:08:23.315Z,55.92
2023-09-14T11:11:02.029Z,56.69
2023-09-14T11:13:36.118Z,52.51
2023-09-14T11:16:12.881Z,50.55
2023-09-14T11:18:48.163Z,49.25
2023-09-14T11:21:37.372Z,49.90
2023-09-14T11:24:09.300Z,54.80
2023-09-14T11:26:49.668Z,57.17
2023-09-14T11:29:19.742Z,60.61
2023-09-14T11:32:02.444Z,58.09
2023-09-14T11:34:34.476Z,59.74
2023-09-14T11:37:13.334Z,57.43
2023-09-14T11:39:43.296Z,53.40
2023-09-14T11:42:15.498Z,54.14
2023-09-14T11:44:53.065Z,46.40
2023-09-14T11:47:27.648Z,39.31
2023-09-14T11:50:01.051Z,40.96
2023-09-14T11:52:32.031Z,37.28
2023-09-14T11:54:59.283Z,35.53
2023-09-14T11:57:30.158Z,32.88
2023-09-14T11:59:57.061Z,34.15
2023-09-14T12:02:24.167Z,37.43
2023-09-14T12:04:52.422Z,39.11
2023-09-14T12:07:23.053Z,40.40
2023-09-14T12:09:50.815Z,38.87
2023-09-14T12:12:31.472Z,41.81
2023-09-14T12:14:59.651Z,40.29
2023-09-14T12:17:28.898Z,41.27
2023-09-14T12:20:00.043Z,39.47
2023-09-14T12:22:29.495Z,37.97
2023-09-14T12:24:57.087Z,38.25
2023-09-14T12:27:24.459Z,33.49
2023-09-14T12:29:52.042Z,34.46
2023-09-14T12:32:19.697Z,33.91
2023-09-14T12:34:48.508Z,34.03
2023-09-14T12:37:20.421Z,34.14
2023-09-14T12:39:52.965Z,34.70
2023-09-14T12:42:25.132Z,34.71
2023-09-14T12:44:55.078Z,34.30
2023-09-14T12:47:22.773Z,38.22
2023-09-14T12:49:50.280Z,42.11
2023-09-14T12:52:18.137Z,40.98
2023-09-14T12:54:47.160Z,38.02
2023-09-14T12:57:17.936Z,39.72
2023-09-14T13:00:04.140Z,37.41
2023-09-14T13:02:35.058Z,35.44
2023-09-14T13:05:06.351Z,34.42
2023-09-14T13:07:33.434Z,31.05
2023-09-14T13:10:13.036Z,32.16
2023-09-14T13:12:51.896Z,34.72
2023-09-14T13:15:30.722Z,36.63
2023-09-14T13:18:09.342Z,37.90
2023-09-14T13:20:38.172Z,36.60
2023-09-14T13:23:07.755Z,34.23
2023-09-14T13:25:35.276Z,33.96
2023-09-14T13:28:02.458Z,34.59
2023-09-14T13:30:30.420Z,35.33
2023-09-14T13:32:57.792Z,39.35
2023-09-14T13:35:26.067Z,38.52
2023-09-14T13:37:53.334Z,42.21
2023-09-14T13:40:21.661Z,43.77
2023-09-14T13:42:59.278Z,44.11
2023-09-14T13:45:28.510Z,48.74
2023-09-14T13:47:55.513Z,51.77
2023-09-14T13:50:23.554Z,52.71
2023-09-14T13:52:52.770Z,58.48
2023-09-14T13:55:19.755Z,60.21
2023-09-14T13:57:48.008Z,64.06
2023-09-14T14:00:18.076Z,64.94
2023-09-14T14:03:06.097Z,68.88
2023-09-14T14:05:33.312Z,66.72
2023-09-14T14:08:00.094Z,67.59
2023-09-14T14:10:26.909Z,78.64
2023-09-14T14:12:53.739Z,79.11
2023-09-14T14:15:21.174Z,73.31
2023-09-14T14:17:48.121Z,72.57
2023-09-14T14:20:14.941Z,76.49
2023-09-14T14:22:41.685Z,69.63
2023-09-14T14:25:09.114Z,74.06
2023-09-14T14:27:42.819Z,70.58
2023-09-14T14:30:11.314Z,68.12
2023-09-14T14:32:38.366Z,67.55
2023-09-14T14:35:06.423Z,65.40
2023-09-14T14:37:33.365Z,70.98
2023-09-14T14:40:00.294Z,67.72
2023-09-14T14:42:27.266Z,75.47
2023-09-14T14:44:54.171Z,70.22
2023-09-14T14:47:21.014Z,70.96
2023-09-14T14:49:49.323Z,68.78
2023-09-14T14:52:16.356Z,67.84
2023-09-14T14:54:43.197Z,71.31
2023-09-14T14:57:11.527Z,68.69
2023-09-14T14:59:39.424Z,71.73
2023-09-14T15:02:07.088Z,74.23
2023-09-14T15:04:35.621Z,75.79
2023-09-14T15:07:03.696Z,80.69
2023-09-14T15:09:30.624Z,78.18
2023-09-14T15:11:57.964Z,76.72
2023-09-14T15:14:24.867Z,83.35
2023-09-14T15:16:51.669Z,79.61
2023-09-14T15:19:19.074Z,83.54
2023-09-14T15:21:45.982Z,83.96
2023-09-14T15:24:12.991Z,89.59
2023-09-14T15:26:39.828Z,85.42
2023-09-14T15:29:06.647Z,86.34
2023-09-14T15:31:33.414Z,86.54
2023-09-14T15:34:00.724Z,90.98
2023-09-14T15:36:27.874Z,89.17
2023-09-14T15:38:55.213Z,88.40
2023-09-14T15:41:22.015Z,91.70
2023-09-14T15:43:49.883Z,91.46
2023-09-14T15:46:19.590Z,94.06
2023-09-14T15:48:47.413Z,94.39
2023-09-14T15:51:19.236Z,99.05
2023-09-14T15:53:49.080Z,100.00
2023-09-14T15:56:16.872Z,100.00
2023-09-14T15:58:44.256Z,100.00
2023-09-14T16:01:11.323Z,100.00
2023-09-14T16:03:38.435Z,100.00
2023-09-14T16:06:07.096Z,100.00
2023-09-14T16:08:35.020Z,100.00
2023-09-14T16:11:04.275Z,100.00
2023-09-14T16:13:31.045Z,100.00
2023-09-14T16:15:58.748Z,100.00
2023-09-14T16:18:25.923Z,100.00
2023-09-14T16:20:53.158Z,100.00
2023-09-14T16:23:20.150Z,100.00
2023-09-14T16:25:46.950Z,100.00
2023-09-14T16:28:13.861Z,100.00
2023-09-14T16:30:41.732Z,100.00
2023-09-14T16:33:08.999Z,100.00
2023-09-14T16:35:39.614Z,100.00
2023-09-14T16:38:06.864Z,100.00
2023-09-14T16:40:33.933Z,100.00
2023-09-14T16:43:01.276Z,100.00
2023-09-14T16:45:28.347Z,100.00
2023-09-14T16:47:57.033Z,100.00
2023-09-14T16:50:24.181Z,100.00
2023-09-14T16:52:51.574Z,100.00
2023-09-14T16:55:18.441Z,100.00
2023-09-14T16:57:48.041Z,100.00
2023-09-14T17:00:15.061Z,100.00
2023-09-14T17:02:42.218Z,100.00
2023-09-14T17:05:09.753Z,100.00
2023-09-14T17:07:40.646Z,100.00
2023-09-14T17:10:12.081Z,100.00
2023-09-14T17:12:39.921Z,100.00
2023-09-14T17:15:09.313Z,100.00
2023-09-14T17:17:36.537Z,100.00
2023-09-14T17:20:08.166Z,100.00
2023-09-14T17:22:35.814Z,100.00
2023-09-14T17:25:03.545Z,100.00
2023-09-14T17:27:30.857Z,100.00
2023-09-14T17:29:59.428Z,100.00
2023-09-14T17:32:26.550Z,100.00
2023-09-14T17:34:53.518Z,100.00
2023-09-14T17:37:20.341Z,100.00
2023-09-14T17:39:47.396Z,100.00
2023-09-14T17:42:14.362Z,100.00
2023-09-14T17:44:42.544Z,100.00
2023-09-14T17:47:10.245Z,100.00
2023-09-14T17:49:37.337Z,100.00
2023-09-14T17:52:06.699Z,100.00
2023-09-14T17:54:35.054Z,100.00
2023-09-14T17:57:02.724Z,100.00
2023-09-14T17:59:29.497Z,100.00
2023-09-14T18:01:56.514Z,100.00
2023-09-14T18:04:25.202Z,100.00
2023-09-14T18:06:52.017Z,100.00
2023-09-14T18:09:18.838Z,100.00
2023-09-14T18:11:45.616Z,100.00
2023-09-14T18:14:12.459Z,100.00
2023-09-14T18:16:40.743Z,100.00
2023-09-14T18:19:07.570Z,100.00
2023-09-14T18:21:34.430Z,100.00
2023-09-14T18:24:01.232Z,100.00
2023-09-14T18:26:28.025Z,100.00
2023-09-14T18:28:58.226Z,100.00
2023-09-14T18:31:25.515Z,100.00
2023-09-14T18:33:52.545Z,100.00
2023-09-14T18:36:19.332Z,100.00
2023-09-14T18:38:46.328Z,100.00
2023-09-14T18:41:15.377Z,100.00
2023-09-14T18:43:42.149Z,100.00
2023-09-14T18:46:14.047Z,100.00
2023-09-14T18:48:41.021Z,100.00
2023-09-14T18:51:08.564Z,100.00
2023-09-14T18:53:35.904Z,100.00
2023-09-14T18:56:02.728Z,100.00
2023-09-14T19:00:59.404Z,100.00
2023-09-14T19:03:27.548Z,100.00
2023-09-14T19:05:56.476Z,100.00
2023-09-14T19:08:23.506Z,100.00
2023-09-14T19:10:55.074Z,100.00
2023-09-14T19:13:22.181Z,100.00
2023-09-14T19:15:50.411Z,100.00
2023-09-14T19:18:17.282Z,100.00
2023-09-14T19:20:48.257Z,100.00
2023-09-14T19:23:15.631Z,100.00
2023-09-14T19:25:42.676Z,100.00
2023-09-14T19:28:09.837Z,100.00
2023-09-14T19:30:38.054Z,100.00
2023-09-14T19:33:05.509Z,100.00
2023-09-14T19:35:32.648Z,100.00
2023-09-14T19:37:59.566Z,100.00
2023-09-14T19:40:28.096Z,100.00
2023-09-14T19:42:56.182Z,100.00
2023-09-14T19:45:23.739Z,100.00
2023-09-14T19:47:50.923Z,100.00
2023-09-14T19:50:19.948Z,100.00
2023-09-14T19:52:46.680Z,100.00
2023-09-14T19:55:13.531Z,100.00
2023-09-14T19:57:40.342Z,100.00
2023-09-14T20:00:08.649Z,100.00
2023-09-14T20:02:39.770Z,100.00
2023-09-14T20:05:07.000Z,100.00
2023-09-14T20:07:35.382Z,100.00
2023-09-14T20:10:05.799Z,100.00
2023-09-14T20:12:33.805Z,100.00
2023-09-14T20:15:01.232Z,100.00
2023-09-14T20:17:28.594Z,100.00
2023-09-14T20:19:58.598Z,100.00
2023-09-14T20:22:25.360Z,100.00
2023-09-14T20:24:55.864Z,100.00
2023-09-14T20:27:23.195Z,100.00
2023-09-14T20:29:51.045Z,100.00
2023-09-14T20:32:18.295Z,100.00
2023-09-14T20:34:45.143Z,100.00
2023-09-14T20:39:41.046Z,100.00
2023-09-14T20:42:07.858Z,100.00
2023-09-14T20:44:35.141Z,100.00
2023-09-14T20:47:01.992Z,100.00
2023-09-14T20:49:29.304Z,100.00
2023-09-14T20:51:58.700Z,100.00
2023-09-14T20:54:25.536Z,100.00
2023-09-14T20:56:52.711Z,100.00
2023-09-14T20:59:19.802Z,100.00
2023-09-14T21:01:46.848Z,100.00
2023-09-14T21:04:13.822Z,100.00
2023-09-14T21:06:43.386Z,100.00
2023-09-14T21:09:11.727Z,100.00
2023-09-14T21:11:38.931Z,100.00
2023-09-14T21:14:09.665Z,100.00
2023-09-14T21:16:37.460Z,100.00
2023-09-14T21:19:09.920Z,100.00
2023-09-14T21:21:37.870Z,100.00
2023-09-14T21:24:05.123Z,100.00
2023-09-14T21:26:31.919Z,100.00
2023-09-14T21:28:58.693Z,100.00
2023-09-14T21:31:25.436Z,100.00
2023-09-14T21:33:52.316Z,100.00
2023-09-14T21:36:19.107Z,100.00
2023-09-14T21:38:46.092Z,100.00
2023-09-14T21:41:13.095Z,100.00
2023-09-14T21:43:42.150Z,100.00
2023-09-14T21:46:09.663Z,100.00
2023-09-14T21:48:39.042Z,100.00
2023-09-14T21:51:06.649Z,100.00
2023-09-14T21:53:33.783Z,100.00
2023-09-14T21:56:00.648Z,100.00
2023-09-14T21:58:27.540Z,100.00
2023-09-14T22:00:54.376Z,100.00
2023-09-14T22:03:37.264Z,100.00
2023-09-14T22:06:23.664Z,100.00
2023-09-14T22:08:53.390Z,100.00
2023-09-14T22:11:20.370Z,100.00
2023-09-14T22:13:47.252Z,100.00
2023-09-14T22:16:14.164Z,100.00
2023-09-14T22:18:43.416Z,100.00
2023-09-14T22:21:14.352Z,100.00
2023-09-14T22:23:41.278Z,100.00
2023-09-14T22:26:08.027Z,100.00
2023-09-14T22:28:36.843Z,100.00
2023-09-14T22:31:03.784Z,100.00
2023-09-14T22:33:30.854Z,100.00
2023-09-14T22:35:58.068Z,100.00
2023-09-14T22:38:24.909Z,100.00
2023-09-14T22:40:51.829Z,100.00
2023-09-14T22:43:21.346Z,100.00
2023-09-14T22:45:49.012Z,100.00
2023-09-14T22:48:15.845Z,100.00
2023-09-14T22:50:42.617Z,100.00
2023-09-14T22:53:09.542Z,100.00
2023-09-14T22:55:36.462Z,100.00
2023-09-14T22:58:03.406Z,100.00
2023-09-14T23:00:30.292Z,100.00
2023-09-14T23:02:57.141Z,100.00
2023-09-14T23:05:24.014Z,100.00
2023-09-14T23:07:55.192Z,100.00
2023-09-14T23:10:22.694Z,100.00
2023-09-14T23:12:49.872Z,100.00
2023-09-14T23:15:20.768Z,100.00
2023-09-14T23:17:49.051Z,100.00
2023-09-14T23:20:25.631Z,100.00
2023-09-14T23:22:56.952Z,100.00
2023-09-14T23:25:24.482Z,100.00
2023-09-14T23:27:54.568Z,100.00
2023-09-14T23:30:22.511Z,100.00
2023-09-14T23:32:52.609Z,100.00
2023-09-14T23:35:23.189Z,100.00
2023-09-14T23:37:52.099Z,100.00
2023-09-14T23:40:33.177Z,100.00
2023-09-14T23:43:01.446Z,100.00
2023-09-14T23:45:28.681Z,100.00
2023-09-14T23:47:55.742Z,100.00
2023-09-14T23:50:23.652Z,100.00
2023-09-14T23:52:53.787Z,100.00
2023-09-14T23:55:21.039Z,100.00
2023-09-14T23:57:48.044Z,100.00
